Time;durP1;ratioP1;P1;durP2;ratioP2;P2;SDS_P1;SDS_P2;PMS_P1;PMS_P2;Temp;Humidity;BMP_temperature;BMP_pressure;BME280_temperature;BME280_humidity;BME280_pressure;Samples;Min_cycle;Max_cycle;Signal;HPM_P1;HPM_P2
2022/06/29 00:00:09;;;;;;;8.98;1.70;;;;;;;;;;4990496;28;20030;-62
2022/06/29 00:02:36;;;;;;;4.50;1.50;;;;;;;;;;4979011;28;20050;-62
2022/06/29 00:05:05;;;;;;;8.00;1.52;;;;;;;;;;4990130;28;20029;-62
2022/06/29 00:07:32;;;;;;;6.70;1.42;;;;;;;;;;4983685;28;20044;-62
2022/06/29 00:09:58;;;;;;;6.40;1.70;;;;;;;;;;4982658;28;20451;-62
2022/06/29 00:12:24;;;;;;;3.35;1.23;;;;;;;;;;4991110;28;20122;-62
2022/06/29 00:14:50;;;;;;;8.05;1.50;;;;;;;;;;4979295;28;20163;-61
2022/06/29 00:17:17;;;;;;;5.32;1.30;;;;;;;;;;4986209;28;20042;-61
2022/06/29 00:19:43;;;;;;;5.63;1.50;;;;;;;;;;4975473;28;20023;-62
2022/06/29 00:22:10;;;;;;;5.18;1.70;;;;;;;;;;4989595;28;20402;-61
2022/06/29 00:24:36;;;;;;;10.23;2.42;;;;;;;;;;4977133;28;20023;-63
2022/06/29 00:27:02;;;;;;;13.60;2.30;;;;;;;;;;4980461;28;20096;-62
2022/06/29 00:29:29;;;;;;;10.55;2.22;;;;;;;;;;4986364;28;20030;-61
2022/06/29 00:31:55;;;;;;;13.60;2.50;;;;;;;;;;4986823;28;20037;-62
2022/06/29 00:34:21;;;;;;;11.15;2.20;;;;;;;;;;4979655;28;20035;-62
2022/06/29 00:36:47;;;;;;;11.85;2.30;;;;;;;;;;4990885;28;20398;-62
2022/06/29 00:39:13;;;;;;;10.65;1.92;;;;;;;;;;4981548;28;20037;-61
2022/06/29 00:41:43;;;;;;;9.68;2.33;;;;;;;;;;4984988;28;20070;-61
2022/06/29 00:44:13;;;;;;;10.70;2.17;;;;;;;;;;4988759;28;20088;-62
2022/06/29 00:46:50;;;;;;;10.10;2.70;;;;;;;;;;4978204;28;20033;-62
2022/06/29 00:49:17;;;;;;;12.60;2.63;;;;;;;;;;4988301;28;20046;-61
2022/06/29 00:51:45;;;;;;;10.82;2.60;;;;;;;;;;4984526;28;20121;-62
2022/06/29 00:54:13;;;;;;;15.32;2.90;;;;;;;;;;4981110;28;20030;-62
2022/06/29 00:56:41;;;;;;;10.23;2.35;;;;;;;;;;4990960;28;20037;-61
2022/06/29 00:59:09;;;;;;;12.10;2.38;;;;;;;;;;4979979;28;20045;-62
2022/06/29 01:01:36;;;;;;;12.63;2.58;;;;;;;;;;4985728;28;20038;-62
2022/06/29 01:04:02;;;;;;;8.88;2.60;;;;;;;;;;4987055;28;20542;-61
2022/06/29 01:06:28;;;;;;;12.27;2.35;;;;;;;;;;4978483;28;20054;-61
2022/06/29 01:08:54;;;;;;;12.95;3.05;;;;;;;;;;4990179;28;20023;-61
2022/06/29 01:11:21;;;;;;;8.95;2.45;;;;;;;;;;4981462;28;20037;-61
2022/06/29 01:13:48;;;;;;;16.48;2.67;;;;;;;;;;4983931;28;20314;-62
2022/06/29 01:16:14;;;;;;;11.68;2.72;;;;;;;;;;4987569;28;20022;-62
2022/06/29 01:18:40;;;;;;;12.05;2.50;;;;;;;;;;4977468;28;20090;-61
2022/06/29 01:21:09;;;;;;;7.78;2.33;;;;;;;;;;4993316;28;20042;-61
2022/06/29 01:23:35;;;;;;;12.15;3.05;;;;;;;;;;4985635;28;20026;-61
2022/06/29 01:26:05;;;;;;;9.27;2.45;;;;;;;;;;4986196;28;20019;-61
2022/06/29 01:28:31;;;;;;;12.65;2.63;;;;;;;;;;4978256;28;20034;-62
2022/06/29 01:30:58;;;;;;;8.75;2.80;;;;;;;;;;4990050;28;20066;-61
2022/06/29 01:33:25;;;;;;;10.20;2.72;;;;;;;;;;4980980;28;20038;-61
2022/06/29 01:35:51;;;;;;;10.43;2.55;;;;;;;;;;4982437;28;20447;-61
2022/06/29 01:38:21;;;;;;;12.23;2.70;;;;;;;;;;4987794;28;20034;-61
2022/06/29 01:40:47;;;;;;;12.18;2.90;;;;;;;;;;4977301;28;20038;-61
2022/06/29 01:43:13;;;;;;;11.63;2.78;;;;;;;;;;4992211;28;20034;-61
2022/06/29 01:45:39;;;;;;;13.85;3.13;;;;;;;;;;4985341;28;20023;-62
2022/06/29 01:48:05;;;;;;;11.20;3.35;;;;;;;;;;4985382;28;20533;-61
2022/06/29 01:50:31;;;;;;;16.92;3.53;;;;;;;;;;4978270;28;20034;-61
2022/06/29 01:52:57;;;;;;;15.65;3.22;;;;;;;;;;4989010;28;20126;-61
2022/06/29 01:55:23;;;;;;;14.85;2.50;;;;;;;;;;4979683;28;20500;-61
2022/06/29 01:57:49;;;;;;;11.57;2.88;;;;;;;;;;4983153;28;20027;-61
2022/06/29 02:00:16;;;;;;;17.13;3.53;;;;;;;;;;4986612;28;20033;-61
2022/06/29 02:02:42;;;;;;;15.55;2.97;;;;;;;;;;4976619;28;20027;-61
2022/06/29 02:05:08;;;;;;;10.32;2.75;;;;;;;;;;4989713;28;20403;-61
2022/06/29 02:07:34;;;;;;;10.00;2.45;;;;;;;;;;4980973;28;20498;-61
2022/06/29 02:10:00;;;;;;;17.60;3.05;;;;;;;;;;4982612;28;20054;-61
2022/06/29 02:12:26;;;;;;;18.35;3.30;;;;;;;;;;4987834;28;20096;-62
2022/06/29 02:14:53;;;;;;;12.90;2.90;;;;;;;;;;4975828;28;20415;-62
2022/06/29 02:17:19;;;;;;;13.68;3.20;;;;;;;;;;4987286;28;20031;-61
2022/06/29 02:19:46;;;;;;;15.15;2.90;;;;;;;;;;4981807;28;20022;-61
2022/06/29 02:22:12;;;;;;;13.68;2.97;;;;;;;;;;4980621;28;20026;-61
2022/06/29 02:24:38;;;;;;;16.38;4.20;;;;;;;;;;4973509;28;20050;-61
2022/06/29 02:27:04;;;;;;;13.30;3.13;;;;;;;;;;4975984;28;20510;-61
2022/06/29 02:29:30;;;;;;;12.07;3.33;;;;;;;;;;4986580;28;20050;-61
2022/06/29 02:34:44;;;;;;;8.77;3.05;;;;;;;;;;4977294;28;20057;-61
2022/06/29 02:37:16;;;;;;;10.15;3.67;;;;;;;;;;4989203;28;20092;-61
2022/06/29 02:39:44;;;;;;;13.82;2.40;;;;;;;;;;4980938;28;20026;-61
2022/06/29 02:42:10;;;;;;;18.25;3.35;;;;;;;;;;4981575;28;20058;-61
2022/06/29 02:44:37;;;;;;;11.82;2.88;;;;;;;;;;4987933;28;20524;-61
2022/06/29 02:47:03;;;;;;;10.70;2.67;;;;;;;;;;4975924;28;20439;-61
2022/06/29 02:49:30;;;;;;;15.48;4.05;;;;;;;;;;4988259;28;20518;-61
2022/06/29 02:51:56;;;;;;;11.65;3.78;;;;;;;;;;4983270;28;20073;-61
2022/06/29 02:54:22;;;;;;;16.75;3.00;;;;;;;;;;4985942;28;20030;-61
2022/06/29 02:56:48;;;;;;;11.60;3.88;;;;;;;;;;4976497;28;20049;-61
2022/06/29 02:59:14;;;;;;;8.15;2.25;;;;;;;;;;4988958;28;20161;-61
2022/06/29 03:01:40;;;;;;;9.00;2.80;;;;;;;;;;4979827;28;20466;-61
2022/06/29 03:04:06;;;;;;;15.18;3.33;;;;;;;;;;4982008;28;20606;-61
2022/06/29 03:06:33;;;;;;;8.05;2.75;;;;;;;;;;4986959;28;20390;-61
2022/06/29 03:08:59;;;;;;;9.18;3.10;;;;;;;;;;4978585;28;20042;-61
2022/06/29 03:11:25;;;;;;;7.40;2.47;;;;;;;;;;4992016;28;20127;-61
2022/06/29 03:13:51;;;;;;;13.48;3.47;;;;;;;;;;4985000;28;20031;-61
2022/06/29 03:16:17;;;;;;;17.17;4.38;;;;;;;;;;4984146;28;20109;-61
2022/06/29 03:18:43;;;;;;;12.82;2.90;;;;;;;;;;4991946;28;20566;-61
2022/06/29 03:21:10;;;;;;;11.88;3.05;;;;;;;;;;4983570;28;20045;-61
2022/06/29 03:23:37;;;;;;;13.55;3.65;;;;;;;;;;4990468;28;20461;-61
2022/06/29 03:26:03;;;;;;;11.15;2.92;;;;;;;;;;4985961;28;20023;-61
2022/06/29 03:28:29;;;;;;;8.85;3.00;;;;;;;;;;4983653;28;20372;-61
2022/06/29 03:30:55;;;;;;;13.45;3.13;;;;;;;;;;4992143;28;20050;-61
2022/06/29 03:33:21;;;;;;;13.75;3.10;;;;;;;;;;4980395;28;20129;-61
2022/06/29 03:35:48;;;;;;;13.70;2.90;;;;;;;;;;4988341;28;20023;-61
2022/06/29 03:38:14;;;;;;;7.18;2.50;;;;;;;;;;4986853;28;20031;-61
2022/06/29 03:40:40;;;;;;;13.00;2.85;;;;;;;;;;4981863;28;20023;-61
2022/06/29 03:43:06;;;;;;;10.02;2.95;;;;;;;;;;4992207;28;20018;-62
2022/06/29 03:45:33;;;;;;;10.48;3.28;;;;;;;;;;4981173;28;20023;-61
2022/06/29 03:47:59;;;;;;;8.48;3.05;;;;;;;;;;4987259;28;20034;-61
2022/06/29 03:50:25;;;;;;;11.23;2.75;;;;;;;;;;4988126;28;20026;-61
2022/06/29 03:52:51;;;;;;;7.15;2.60;;;;;;;;;;4980338;28;20034;-61
2022/06/29 03:55:17;;;;;;;8.77;3.08;;;;;;;;;;4991485;28;20500;-61
2022/06/29 03:57:43;;;;;;;13.48;3.22;;;;;;;;;;4982269;28;20502;-61
2022/06/29 04:00:10;;;;;;;8.35;3.35;;;;;;;;;;4983848;28;20023;-61
2022/06/29 04:02:39;;;;;;;14.77;3.30;;;;;;;;;;4987537;28;20539;-61
2022/06/29 04:05:05;;;;;;;19.70;3.67;;;;;;;;;;4985181;28;20031;-61
2022/06/29 04:07:32;;;;;;;17.10;3.05;;;;;;;;;;4984141;28;20034;-61
2022/06/29 04:10:01;;;;;;;11.52;2.80;;;;;;;;;;4983610;28;20023;-61
2022/06/29 04:12:31;;;;;;;13.70;3.10;;;;;;;;;;4979144;28;20033;-61
2022/06/29 04:14:57;;;;;;;10.95;2.63;;;;;;;;;;4988903;28;20022;-61
2022/06/29 04:17:24;;;;;;;10.80;3.58;;;;;;;;;;4978870;28;20026;-61
2022/06/29 04:19:53;;;;;;;15.68;3.50;;;;;;;;;;4988274;28;20034;-61
2022/06/29 04:22:19;;;;;;;11.15;3.03;;;;;;;;;;4985364;28;20038;-61
2022/06/29 04:24:46;;;;;;;11.48;3.15;;;;;;;;;;4980966;28;20070;-61
2022/06/29 04:27:12;;;;;;;14.15;3.28;;;;;;;;;;4985264;28;20023;-61
2022/06/29 04:29:38;;;;;;;15.55;3.60;;;;;;;;;;4989169;28;20050;-61
2022/06/29 04:32:04;;;;;;;9.05;3.30;;;;;;;;;;4984536;28;20390;-61
2022/06/29 04:34:30;;;;;;;17.50;3.40;;;;;;;;;;4987110;28;20034;-61
2022/06/29 04:36:57;;;;;;;12.20;3.65;;;;;;;;;;4978879;28;20525;-61
2022/06/29 04:39:23;;;;;;;12.50;4.47;;;;;;;;;;4991163;28;20034;-61
2022/06/29 04:41:52;;;;;;;16.40;3.42;;;;;;;;;;4978343;28;20019;-61
2022/06/29 04:44:18;;;;;;;9.90;3.33;;;;;;;;;;4984384;28;20084;-61
2022/06/29 04:46:44;;;;;;;14.60;3.78;;;;;;;;;;4980417;28;20476;-61
2022/06/29 04:49:10;;;;;;;20.83;3.10;;;;;;;;;;4982188;28;20501;-61
2022/06/29 04:51:37;;;;;;;15.18;3.95;;;;;;;;;;4983256;28;20027;-61
2022/06/29 04:54:03;;;;;;;19.02;3.65;;;;;;;;;;4989636;28;20482;-61
2022/06/29 04:56:30;;;;;;;15.32;4.00;;;;;;;;;;4985136;28;20031;-61
2022/06/29 04:58:57;;;;;;;13.02;4.38;;;;;;;;;;4986132;28;20109;-61
2022/06/29 05:01:24;;;;;;;21.73;4.63;;;;;;;;;;4982601;28;20491;-61
2022/06/29 05:03:51;;;;;;;19.48;4.18;;;;;;;;;;4990949;28;20031;-61
2022/06/29 05:06:18;;;;;;;20.50;4.30;;;;;;;;;;4985256;28;20027;-61
2022/06/29 05:08:45;;;;;;;19.15;3.80;;;;;;;;;;4988682;28;20084;-61
2022/06/29 05:11:14;;;;;;;18.73;4.38;;;;;;;;;;4984633;28;20149;-61
2022/06/29 05:13:41;;;;;;;23.40;4.13;;;;;;;;;;4985894;28;20030;-61
2022/06/29 05:16:07;;;;;;;21.92;4.45;;;;;;;;;;4974961;28;20033;-61
2022/06/29 05:18:34;;;;;;;16.80;4.22;;;;;;;;;;4984133;28;20434;-61
2022/06/29 05:21:00;;;;;;;23.15;4.30;;;;;;;;;;4984036;28;20532;-61
2022/06/29 05:23:29;;;;;;;23.63;6.35;;;;;;;;;;4990931;28;20390;-61
2022/06/29 05:25:55;;;;;;;25.20;3.78;;;;;;;;;;4978211;28;20023;-61
2022/06/29 05:28:21;;;;;;;23.58;5.55;;;;;;;;;;4982971;28;20030;-61
2022/06/29 05:30:48;;;;;;;20.17;3.72;;;;;;;;;;4982834;28;20053;-61
2022/06/29 05:33:14;;;;;;;11.75;3.38;;;;;;;;;;4985921;28;20112;-61
2022/06/29 05:35:41;;;;;;;21.17;3.10;;;;;;;;;;4980731;28;20074;-61
2022/06/29 05:38:07;;;;;;;19.17;4.25;;;;;;;;;;4985503;28;20042;-61
2022/06/29 05:40:33;;;;;;;13.90;3.75;;;;;;;;;;4985505;28;20503;-61
2022/06/29 05:42:59;;;;;;;12.52;3.42;;;;;;;;;;4974066;28;20498;-62
2022/06/29 05:45:26;;;;;;;20.48;4.03;;;;;;;;;;4973989;28;20050;-62
2022/06/29 05:47:53;;;;;;;15.88;4.15;;;;;;;;;;4975247;28;20232;-62
2022/06/29 05:50:20;;;;;;;16.65;3.72;;;;;;;;;;4975266;28;20042;-62
2022/06/29 05:52:46;;;;;;;15.18;2.92;;;;;;;;;;4973410;28;20026;-62
2022/06/29 05:55:12;;;;;;;13.13;4.45;;;;;;;;;;4973072;28;20034;-62
2022/06/29 05:57:38;;;;;;;21.98;4.88;;;;;;;;;;4982879;28;20033;-62
2022/06/29 06:00:05;;;;;;;24.50;3.40;;;;;;;;;;4983685;28;20081;-62
2022/06/29 06:02:37;;;;;;;;;;;;;;;;;;4984034;28;20121;-62
2022/06/29 06:05:03;;;;;;;28.35;4.10;;;;;;;;;;4981878;28;19917;-62
2022/06/29 06:07:29;;;;;;;31.17;3.95;;;;;;;;;;4987972;28;20022;-62
2022/06/29 06:09:57;;;;;;;14.70;3.33;;;;;;;;;;4982496;28;20077;-62
2022/06/29 06:12:23;;;;;;;17.88;3.67;;;;;;;;;;4984208;28;20105;-62
2022/06/29 06:14:49;;;;;;;21.58;3.72;;;;;;;;;;4983259;28;20707;-62
2022/06/29 06:17:15;;;;;;;19.23;3.97;;;;;;;;;;4984243;28;20019;-62
2022/06/29 06:19:41;;;;;;;24.17;3.47;;;;;;;;;;4985320;28;20054;-62
2022/06/29 06:22:07;;;;;;;17.15;3.47;;;;;;;;;;4984442;28;20095;-62
2022/06/29 06:24:34;;;;;;;15.98;3.30;;;;;;;;;;4981066;28;20077;-62
2022/06/29 06:27:00;;;;;;;22.10;3.92;;;;;;;;;;4981460;28;20509;-62
2022/06/29 06:29:26;;;;;;;18.25;3.85;;;;;;;;;;4980344;28;20109;-62
2022/06/29 06:31:52;;;;;;;24.02;3.78;;;;;;;;;;4972248;28;20090;-63
2022/06/29 06:34:19;;;;;;;20.33;4.00;;;;;;;;;;4978982;28;20050;-73
2022/06/29 06:36:45;;;;;;;20.90;3.67;;;;;;;;;;4975323;28;20030;-63
2022/06/29 06:39:11;;;;;;;15.02;2.95;;;;;;;;;;4980170;28;20034;-62
2022/06/29 06:41:37;;;;;;;18.05;3.58;;;;;;;;;;4975328;28;20030;-62
2022/06/29 06:44:03;;;;;;;27.98;3.80;;;;;;;;;;4970685;28;20031;-63
2022/06/29 06:46:29;;;;;;;20.55;3.40;;;;;;;;;;4975071;28;20018;-63
2022/06/29 06:48:55;;;;;;;19.35;3.58;;;;;;;;;;4972098;28;20031;-63
2022/06/29 06:51:22;;;;;;;19.00;3.38;;;;;;;;;;4971927;28;20031;-63
2022/06/29 06:53:49;;;;;;;23.08;3.53;;;;;;;;;;4974223;28;20454;-63
2022/06/29 06:56:15;;;;;;;26.48;4.57;;;;;;;;;;4979917;28;20022;-63
2022/06/29 06:58:41;;;;;;;18.30;3.30;;;;;;;;;;4983825;28;20059;-63
2022/06/29 07:01:08;;;;;;;17.25;3.40;;;;;;;;;;4977929;28;20110;-62
2022/06/29 07:03:38;;;;;;;20.77;3.50;;;;;;;;;;4976286;28;20423;-63
2022/06/29 07:06:07;;;;;;;23.30;3.72;;;;;;;;;;4975687;28;20034;-62
2022/06/29 07:08:34;;;;;;;19.50;3.83;;;;;;;;;;4982131;28;20375;-63
2022/06/29 07:11:00;;;;;;;22.95;4.03;;;;;;;;;;4983355;28;20026;-63
2022/06/29 07:13:27;;;;;;;20.00;3.40;;;;;;;;;;4975701;28;20061;-63
2022/06/29 07:15:53;;;;;;;19.75;3.65;;;;;;;;;;4974650;28;20031;-63
2022/06/29 07:18:19;;;;;;;14.95;3.38;;;;;;;;;;4980602;28;20039;-62
2022/06/29 07:20:45;;;;;;;11.88;3.05;;;;;;;;;;4977763;28;20018;-63
2022/06/29 07:23:11;;;;;;;14.55;2.97;;;;;;;;;;4982426;28;20069;-63
2022/06/29 07:25:37;;;;;;;11.05;3.13;;;;;;;;;;4979006;28;20026;-63
2022/06/29 07:28:03;;;;;;;14.00;3.13;;;;;;;;;;4975803;28;20431;-63
2022/06/29 07:30:30;;;;;;;15.20;2.67;;;;;;;;;;4973412;28;20496;-63
2022/06/29 07:32:56;;;;;;;12.43;3.17;;;;;;;;;;4972491;28;20085;-63
2022/06/29 07:35:22;;;;;;;18.48;2.60;;;;;;;;;;4978360;28;20450;-63
2022/06/29 07:37:50;;;;;;;21.88;3.10;;;;;;;;;;4976049;28;20402;-63
2022/06/29 07:40:16;;;;;;;12.13;2.40;;;;;;;;;;4976520;28;20041;-63
2022/06/29 07:42:42;;;;;;;20.35;4.45;;;;;;;;;;4972387;28;20386;-63
2022/06/29 07:45:09;;;;;;;19.35;3.05;;;;;;;;;;4973068;28;20023;-63
2022/06/29 07:47:35;;;;;;;14.02;3.45;;;;;;;;;;4981500;28;20434;-63
2022/06/29 07:50:01;;;;;;;13.88;2.55;;;;;;;;;;4975306;28;20027;-63
2022/06/29 07:52:27;;;;;;;13.23;2.10;;;;;;;;;;4971697;28;20023;-63
2022/06/29 07:54:53;;;;;;;12.68;2.40;;;;;;;;;;4981483;28;20030;-63
2022/06/29 07:57:20;;;;;;;16.00;3.78;;;;;;;;;;4984191;28;20336;-63
2022/06/29 07:59:46;;;;;;;16.73;2.70;;;;;;;;;;4985617;28;20022;-63
2022/06/29 08:02:13;;;;;;;11.73;3.20;;;;;;;;;;4985655;28;20050;-62
2022/06/29 08:04:39;;;;;;;11.05;2.60;;;;;;;;;;4990935;28;20027;-63
2022/06/29 08:07:05;;;;;;;19.20;3.08;;;;;;;;;;4988945;28;20073;-63
2022/06/29 08:09:32;;;;;;;12.23;2.40;;;;;;;;;;4989510;28;20045;-63
2022/06/29 08:11:58;;;;;;;12.35;1.88;;;;;;;;;;4994971;28;20108;-63
2022/06/29 08:14:24;;;;;;;10.85;2.38;;;;;;;;;;4993601;28;20113;-63
2022/06/29 08:16:50;;;;;;;12.98;2.60;;;;;;;;;;4994809;28;20022;-63
2022/06/29 08:19:16;;;;;;;12.25;2.30;;;;;;;;;;4984933;28;20027;-63
2022/06/29 08:21:43;;;;;;;8.68;2.17;;;;;;;;;;4980605;28;20041;-63
2022/06/29 08:24:09;;;;;;;13.75;2.47;;;;;;;;;;4976766;28;20402;-63
2022/06/29 08:26:35;;;;;;;13.43;2.47;;;;;;;;;;4989644;28;20026;-63
2022/06/29 08:29:01;;;;;;;10.70;2.40;;;;;;;;;;4992360;28;20057;-63
2022/06/29 08:31:27;;;;;;;12.32;2.70;;;;;;;;;;4976578;28;20058;-63
2022/06/29 08:33:53;;;;;;;12.73;2.58;;;;;;;;;;4989857;28;20026;-63
2022/06/29 08:36:19;;;;;;;14.98;2.42;;;;;;;;;;4974430;28;20023;-63
2022/06/29 08:38:45;;;;;;;10.48;1.95;;;;;;;;;;4981030;28;20430;-63
2022/06/29 08:41:12;;;;;;;10.77;2.10;;;;;;;;;;4987571;28;20093;-63
2022/06/29 08:43:39;;;;;;;13.93;4.55;;;;;;;;;;4979786;28;20542;-63
2022/06/29 08:46:05;;;;;;;10.60;2.22;;;;;;;;;;4993015;28;20084;-63
2022/06/29 08:48:31;;;;;;;8.38;1.75;;;;;;;;;;4987881;28;20399;-63
2022/06/29 08:50:57;;;;;;;10.88;1.90;;;;;;;;;;4994416;28;20030;-63
2022/06/29 08:53:23;;;;;;;11.55;2.42;;;;;;;;;;4994095;28;20035;-63
2022/06/29 08:55:51;;;;;;;14.55;2.05;;;;;;;;;;4982504;28;20027;-63
2022/06/29 08:58:21;;;;;;;10.38;2.58;;;;;;;;;;4985025;28;20030;-63
2022/06/29 09:00:49;;;;;;;10.15;1.77;;;;;;;;;;4979959;28;20026;-63
2022/06/29 09:03:17;;;;;;;12.50;2.65;;;;;;;;;;4990599;28;20462;-63
2022/06/29 09:05:48;;;;;;;10.38;1.80;;;;;;;;;;4979977;28;20026;-63
2022/06/29 09:08:15;;;;;;;11.80;2.38;;;;;;;;;;4994590;28;20035;-63
2022/06/29 09:10:41;;;;;;;12.68;1.90;;;;;;;;;;4993655;28;20018;-63
2022/06/29 09:13:08;;;;;;;14.80;2.92;;;;;;;;;;4991704;28;20042;-63
2022/06/29 09:15:34;;;;;;;14.50;2.33;;;;;;;;;;4991505;28;20423;-62
2022/06/29 09:18:01;;;;;;;18.27;2.92;;;;;;;;;;4991329;28;20070;-63
2022/06/29 09:20:37;;;;;;;12.00;2.00;;;;;;;;;;4987074;28;20014;-63
2022/06/29 09:23:03;;;;;;;12.95;2.92;;;;;;;;;;4985714;28;20030;-63
2022/06/29 09:25:32;;;;;;;10.07;2.00;;;;;;;;;;4978489;28;20019;-62
2022/06/29 09:27:59;;;;;;;10.98;2.67;;;;;;;;;;4990137;28;20034;-63
2022/06/29 09:30:26;;;;;;;12.63;2.25;;;;;;;;;;4991276;28;20074;-63
2022/06/29 09:33:06;;;;;;;33.85;4.88;;;;;;;;;;4989420;28;20037;-63
2022/06/29 09:35:33;;;;;;;13.52;2.20;;;;;;;;;;4991722;28;20054;-63
2022/06/29 09:38:19;;;;;;;8.77;2.15;;;;;;;;;;4977082;28;20403;-63
2022/06/29 09:40:57;;;;;;;14.15;3.17;;;;;;;;;;4975875;28;20454;-63
2022/06/29 09:43:24;;;;;;;12.00;2.55;;;;;;;;;;4972867;28;20030;-63
2022/06/29 09:45:54;;;;;;;21.48;3.22;;;;;;;;;;4981175;28;20027;-63
2022/06/29 09:48:25;;;;;;;9.30;2.30;;;;;;;;;;4973178;28;20089;-63
2022/06/29 09:50:54;;;;;;;14.88;2.50;;;;;;;;;;4973725;28;20118;-62
2022/06/29 09:53:24;;;;;;;18.08;2.92;;;;;;;;;;4974812;28;20022;-63
2022/06/29 09:55:53;;;;;;;19.55;3.63;;;;;;;;;;4976082;28;20019;-63
2022/06/29 09:58:20;;;;;;;11.68;2.08;;;;;;;;;;4975895;28;20065;-62
2022/06/29 10:03:32;;;;;;;15.00;3.95;;;;;;;;;;4976178;28;20030;-63
2022/06/29 10:06:05;;;;;;;16.25;3.55;;;;;;;;;;4974903;28;20454;-63
2022/06/29 10:08:32;;;;;;;25.50;2.92;;;;;;;;;;4974998;28;20034;-63
2022/06/29 10:13:39;;;;;;;17.92;2.42;;;;;;;;;;4972700;28;20046;-63
2022/06/29 10:13:48;;;;;;;10.50;2.53;;;;;;;;;;4977400;28;20046;-63
2022/06/29 10:16:41;;;;;;;14.13;3.00;;;;;;;;;;4978160;28;20057;-63
2022/06/29 10:19:13;;;;;;;14.00;3.10;;;;;;;;;;4975853;28;20027;-63
2022/06/29 10:21:39;;;;;;;12.97;2.70;;;;;;;;;;4976212;28;20140;-62
2022/06/29 10:24:05;;;;;;;10.65;2.72;;;;;;;;;;4975694;28;20274;-62
2022/06/29 10:26:35;;;;;;;10.45;2.45;;;;;;;;;;4976221;28;20033;-62
2022/06/29 10:29:07;;;;;;;15.70;4.13;;;;;;;;;;4981877;28;20058;-62
2022/06/29 10:31:52;;;;;;;13.13;3.28;;;;;;;;;;4979784;28;20041;-63
2022/06/29 10:34:30;;;;;;;13.45;2.88;;;;;;;;;;4972223;28;20025;-63
2022/06/29 10:37:11;;;;;;;8.95;1.77;;;;;;;;;;4978029;28;20018;-63
2022/06/29 10:39:49;;;;;;;6.88;1.77;;;;;;;;;;4976622;28;20043;-63
2022/06/29 10:45:06;;;;;;;9.15;1.55;;;;;;;;;;4983693;28;20399;-62
2022/06/29 10:47:33;;;;;;;8.52;2.00;;;;;;;;;;4985411;28;20031;-62
2022/06/29 10:50:19;;;;;;;12.45;2.10;;;;;;;;;;4979496;28;20055;-62
2022/06/29 10:52:45;;;;;;;10.10;2.08;;;;;;;;;;4974262;28;20098;-62
2022/06/29 10:55:12;;;;;;;11.07;1.95;;;;;;;;;;4982977;28;20050;-63
2022/06/29 10:57:39;;;;;;;15.32;2.90;;;;;;;;;;4978410;28;20030;-63
2022/06/29 11:00:09;;;;;;;10.20;2.63;;;;;;;;;;4978742;28;20035;-62
2022/06/29 11:02:38;;;;;;;11.43;2.78;;;;;;;;;;4975309;28;20129;-62
2022/06/29 11:05:04;;;;;;;15.43;2.75;;;;;;;;;;4971491;28;20101;-62
2022/06/29 11:13:00;;;;;;;10.50;1.60;;;;;;;;;;4976769;28;20090;-63
2022/06/29 11:15:40;;;;;;;8.98;1.65;;;;;;;;;;4984674;28;20018;-62
2022/06/29 11:18:11;;;;;;;7.40;1.67;;;;;;;;;;4977721;28;20105;-62
2022/06/29 11:20:38;;;;;;;6.20;1.90;;;;;;;;;;4975398;28;20038;-62
2022/06/29 11:23:10;;;;;;;8.50;1.90;;;;;;;;;;4978430;28;20041;-62
2022/06/29 11:25:36;;;;;;;7.80;1.50;;;;;;;;;;4975149;28;20053;-62
2022/06/29 11:28:02;;;;;;;7.30;1.42;;;;;;;;;;4977878;28;20038;-63
2022/06/29 11:30:29;;;;;;;7.35;1.70;;;;;;;;;;4977877;28;20046;-63
2022/06/29 11:32:55;;;;;;;5.75;1.67;;;;;;;;;;4983398;28;20037;-63
2022/06/29 11:35:22;;;;;;;8.38;1.48;;;;;;;;;;4984906;28;20038;-63
2022/06/29 11:37:51;;;;;;;9.85;1.38;;;;;;;;;;4984141;28;20081;-64
2022/06/29 11:40:34;;;;;;;8.13;1.70;;;;;;;;;;4979604;28;20491;-72
2022/06/29 11:43:07;;;;;;;11.45;2.28;;;;;;;;;;4976346;28;20379;-63
2022/06/29 11:45:36;;;;;;;11.95;2.10;;;;;;;;;;4976225;28;20058;-63
2022/06/29 11:48:10;;;;;;;15.18;2.40;;;;;;;;;;4978353;28;20042;-63
2022/06/29 11:50:42;;;;;;;12.88;2.70;;;;;;;;;;4985269;28;20034;-62
2022/06/29 11:53:08;;;;;;;13.57;2.15;;;;;;;;;;4984314;28;21304;-62
2022/06/29 11:55:40;;;;;;;20.70;2.80;;;;;;;;;;4990090;28;20018;-62
2022/06/29 11:58:09;;;;;;;11.18;2.40;;;;;;;;;;4981282;28;20510;-62
2022/06/29 12:00:37;;;;;;;13.23;2.95;;;;;;;;;;4989335;28;20034;-63
2022/06/29 12:03:04;;;;;;;14.90;2.60;;;;;;;;;;4983041;28;20022;-63
2022/06/29 12:05:30;;;;;;;14.65;3.08;;;;;;;;;;4979345;28;20023;-63
2022/06/29 12:07:56;;;;;;;17.58;3.33;;;;;;;;;;4976748;28;20041;-63
2022/06/29 12:10:22;;;;;;;9.88;2.83;;;;;;;;;;4978938;28;20038;-63
2022/06/29 12:12:48;;;;;;;12.77;2.60;;;;;;;;;;4975970;28;20487;-63
2022/06/29 12:15:16;;;;;;;19.27;3.97;;;;;;;;;;4978178;28;20027;-63
2022/06/29 12:17:43;;;;;;;13.52;2.33;;;;;;;;;;4973444;28;20031;-63
2022/06/29 12:20:09;;;;;;;14.18;2.83;;;;;;;;;;4979828;28;20068;-62
2022/06/29 12:22:36;;;;;;;14.00;2.92;;;;;;;;;;4980873;28;20038;-62
2022/06/29 12:25:03;;;;;;;19.17;3.35;;;;;;;;;;4979786;28;20068;-62
2022/06/29 12:27:29;;;;;;;13.45;2.33;;;;;;;;;;4978102;28;20041;-63
2022/06/29 12:29:55;;;;;;;7.50;1.70;;;;;;;;;;4984263;28;20573;-62
2022/06/29 12:32:22;;;;;;;13.57;2.05;;;;;;;;;;4981175;28;20049;-62
2022/06/29 12:34:48;;;;;;;6.57;1.83;;;;;;;;;;4976841;28;20042;-62
2022/06/29 12:37:17;;;;;;;7.57;1.42;;;;;;;;;;4977295;28;20038;-62
2022/06/29 12:39:43;;;;;;;8.90;1.58;;;;;;;;;;4978764;28;20035;-63
2022/06/29 12:42:09;;;;;;;3.85;1.20;;;;;;;;;;4987291;28;20023;-62
2022/06/29 12:44:35;;;;;;;7.68;2.08;;;;;;;;;;4979227;28;20117;-62
2022/06/29 12:47:01;;;;;;;10.38;2.45;;;;;;;;;;4983223;28;20499;-63
2022/06/29 12:49:27;;;;;;;7.65;1.58;;;;;;;;;;4981809;28;20019;-62
2022/06/29 12:51:54;;;;;;;9.02;1.20;;;;;;;;;;4982817;28;20169;-62
2022/06/29 12:54:20;;;;;;;8.30;1.50;;;;;;;;;;4984897;28;20070;-62
2022/06/29 12:56:47;;;;;;;11.00;1.70;;;;;;;;;;4980830;28;20095;-62
2022/06/29 12:59:14;;;;;;;11.35;1.10;;;;;;;;;;4979800;28;20069;-62
2022/06/29 13:01:40;;;;;;;3.38;1.20;;;;;;;;;;4978642;28;20054;-62
2022/06/29 13:04:07;;;;;;;14.45;2.17;;;;;;;;;;4980087;28;20049;-62
2022/06/29 13:06:33;;;;;;;8.85;2.10;;;;;;;;;;4976422;28;20023;-62
2022/06/29 13:08:59;;;;;;;12.50;2.28;;;;;;;;;;4986269;28;20030;-62
2022/06/29 13:11:25;;;;;;;12.18;1.90;;;;;;;;;;4982739;28;20037;-62
2022/06/29 13:13:51;;;;;;;9.60;2.00;;;;;;;;;;4979547;28;20031;-63
2022/06/29 13:16:18;;;;;;;9.45;1.85;;;;;;;;;;4979131;28;20122;-62
2022/06/29 13:18:44;;;;;;;13.82;2.35;;;;;;;;;;4973554;28;20093;-63
2022/06/29 13:21:10;;;;;;;11.40;2.78;;;;;;;;;;4979122;28;20073;-63
2022/06/29 13:23:37;;;;;;;15.88;2.50;;;;;;;;;;4975316;28;20550;-63
2022/06/29 13:26:03;;;;;;;16.10;2.60;;;;;;;;;;4978608;28;20057;-62
2022/06/29 13:28:29;;;;;;;17.17;3.00;;;;;;;;;;4976729;28;20474;-63
2022/06/29 13:30:56;;;;;;;12.25;2.47;;;;;;;;;;4979380;28;20070;-63
2022/06/29 13:33:22;;;;;;;17.15;2.50;;;;;;;;;;4981744;28;20047;-63
2022/06/29 13:35:48;;;;;;;6.78;2.15;;;;;;;;;;4977868;28;20030;-63
2022/06/29 13:38:14;;;;;;;13.30;2.58;;;;;;;;;;4986014;28;20037;-63
2022/06/29 13:40:40;;;;;;;12.20;2.20;;;;;;;;;;4979633;28;20031;-62
2022/06/29 13:43:06;;;;;;;11.35;1.75;;;;;;;;;;4980073;28;20377;-62
2022/06/29 13:45:33;;;;;;;16.58;1.85;;;;;;;;;;4977424;28;20055;-61
2022/06/29 13:47:59;;;;;;;13.15;1.83;;;;;;;;;;4977801;28;20035;-61
2022/06/29 13:50:26;;;;;;;7.15;1.77;;;;;;;;;;4980553;28;20391;-61
2022/06/29 13:52:52;;;;;;;6.88;1.70;;;;;;;;;;4977457;28;20042;-61
2022/06/29 13:55:18;;;;;;;12.45;1.67;;;;;;;;;;4985261;28;20088;-62
2022/06/29 13:57:45;;;;;;;9.32;1.55;;;;;;;;;;4979943;28;20483;-61
2022/06/29 14:00:11;;;;;;;8.45;1.77;;;;;;;;;;4981859;28;20449;-61
2022/06/29 14:02:39;;;;;;;14.10;1.80;;;;;;;;;;4981714;28;20073;-61
2022/06/29 14:05:06;;;;;;;6.35;1.75;;;;;;;;;;4984125;28;20495;-61
2022/06/29 14:07:32;;;;;;;8.02;2.03;;;;;;;;;;4984201;28;20060;-61
2022/06/29 14:09:58;;;;;;;7.82;1.23;;;;;;;;;;4984317;28;20623;-62
2022/06/29 14:12:25;;;;;;;5.20;1.50;;;;;;;;;;4988447;28;20038;-61
2022/06/29 14:14:51;;;;;;;13.80;1.25;;;;;;;;;;4967401;28;20061;-62
2022/06/29 14:17:17;;;;;;;9.18;1.92;;;;;;;;;;4978636;28;20129;-61
2022/06/29 14:19:44;;;;;;;10.30;2.20;;;;;;;;;;4981284;28;20029;-62
2022/06/29 14:22:10;;;;;;;16.63;2.72;;;;;;;;;;4976878;28;20069;-62
2022/06/29 14:24:36;;;;;;;6.22;1.45;;;;;;;;;;4978538;28;20030;-61
2022/06/29 14:27:02;;;;;;;6.35;1.40;;;;;;;;;;4979624;28;20019;-62
2022/06/29 14:29:29;;;;;;;4.90;1.13;;;;;;;;;;4977807;28;20029;-62
2022/06/29 14:31:55;;;;;;;9.07;1.90;;;;;;;;;;4981722;28;20076;-62
2022/06/29 14:34:21;;;;;;;5.95;1.17;;;;;;;;;;4982861;28;20495;-61
2022/06/29 14:36:47;;;;;;;7.13;2.33;;;;;;;;;;4978667;28;20479;-61
2022/06/29 14:39:13;;;;;;;8.57;1.58;;;;;;;;;;4974137;28;20034;-61
2022/06/29 14:41:39;;;;;;;8.55;1.90;;;;;;;;;;4978700;28;20018;-61
2022/06/29 14:44:06;;;;;;;12.20;2.00;;;;;;;;;;4976457;28;20376;-61
2022/06/29 14:46:32;;;;;;;15.10;2.10;;;;;;;;;;4975204;28;20114;-61